Portada
METAR-TAF:

METAR-TAF

Aeropuertos :

Aeropuerto de Matsuyama

Matsuyama, Japón

latitud: 33-49N, longitud: 132-42E, altitud: 4 m

Observación

El informe se hizo hace 16 minutos, a las 09:00 UTC
Viento 8 kt del sur-suroeste
Temperatura 17°C
Humedad 39%
Presión 1013 hPa
Visibilidad 10 km o más
Escasas nubes a una altura de 4000 ft

METAR: RJOM 040900Z 20008KT 9999 FEW040 17/03 Q1013

Hora: 18:16 (09:16 UTC)

Pronóstico

El informe se hizo hace 4 horas y 8 minutos, a las 05:08 UTC
Pronóstico válido del 04 a las 06 UTC al 05 a las 12 UTC
Viento 14 kt del oeste-suroeste
Visibilidad 10 km o más
Escasas nubes a una altura de 3000 ft
Evolucionando progresivamente
del 04 a las 15 UTC al 04 a las 17 UTC
Viento 16 kt del norte
Evolucionando progresivamente
del 05 a las 00 UTC al 05 a las 03 UTC
Viento 8 kt del oeste-noroeste

TAF: RJOM 040508Z 0406/0512 25014KT 9999 FEW030 BECMG 0415/0417 36016KT BECMG 0500/0503 30008KT

Observaciones y pronósticos meteorológicos de más de 4000 aeropuertos (mensajes METAR y TAF).

Los puntos amarillos y rojos representan las estaciones disponibles.

Ponga el ratón en el punto deseado para ver el nombre de la estación.

Haga clic para ver las observaciones y los pronósticos meteorológicos.

Para cambiar el mapa : haga clic en los botones verdes con una cruz de color negro para hacer un zoom, en el botón verde con un guión para alejar o en las flechas verdes para mapas adyacentes.


METAR-TAF: